createdAt,value
2024-03-02T00:02:26.168Z,-1.88
2024-03-02T00:04:53.000Z,-1.94
2024-03-02T00:07:19.277Z,-2.02
2024-03-02T00:09:45.736Z,-2.09
2024-03-02T00:12:12.279Z,-2.15
2024-03-02T00:14:38.626Z,-2.19
2024-03-02T00:17:05.988Z,-2.24
2024-03-02T00:19:32.413Z,-2.24
2024-03-02T00:22:00.859Z,-2.22
2024-03-02T00:24:32.486Z,-2.19
2024-03-02T00:26:59.073Z,-2.13
2024-03-02T00:29:25.314Z,-2.06
2024-03-02T00:31:51.873Z,-1.98
2024-03-02T00:34:18.536Z,-1.90
2024-03-02T00:36:44.954Z,-1.83
2024-03-02T00:39:13.830Z,-1.76
2024-03-02T00:41:40.641Z,-1.73
2024-03-02T00:44:07.182Z,-1.72
2024-03-02T00:46:40.272Z,-1.73
2024-03-02T00:49:12.370Z,-1.74
2024-03-02T00:51:38.802Z,-1.75
2024-03-02T00:54:06.084Z,-1.82
2024-03-02T00:56:33.018Z,-1.89
2024-03-02T00:58:59.395Z,-1.96
2024-03-02T01:01:25.755Z,-2.04
2024-03-02T01:03:52.450Z,-2.11
2024-03-02T01:06:19.040Z,-2.19
2024-03-02T01:08:45.565Z,-2.27
2024-03-02T01:11:12.004Z,-2.36
2024-03-02T01:13:38.442Z,-2.44
2024-03-02T01:16:06.204Z,-2.51
2024-03-02T01:18:33.011Z,-2.55
2024-03-02T01:20:59.533Z,-2.56
2024-03-02T01:23:25.968Z,-2.56
2024-03-02T01:25:52.537Z,-2.54
2024-03-02T01:28:19.440Z,-2.51
2024-03-02T01:30:45.749Z,-2.49
2024-03-02T01:33:12.134Z,-2.46
2024-03-02T01:35:38.536Z,-2.43
2024-03-02T01:38:06.452Z,-2.41
2024-03-02T01:40:33.677Z,-2.42
2024-03-02T01:42:59.979Z,-2.45
2024-03-02T01:45:27.040Z,-2.49
2024-03-02T01:47:53.410Z,-2.53
2024-03-02T01:50:29.097Z,-2.57
2024-03-02T01:52:55.770Z,-2.62
2024-03-02T01:55:22.098Z,-2.68
2024-03-02T01:57:49.030Z,-2.75
2024-03-02T02:00:15.615Z,-2.81
2024-03-02T02:02:41.904Z,-2.89
2024-03-02T02:05:08.271Z,-2.94
2024-03-02T02:07:35.359Z,-2.99
2024-03-02T02:10:01.692Z,-3.02
2024-03-02T02:12:28.114Z,-3.01
2024-03-02T02:14:54.551Z,-2.98
2024-03-02T02:17:21.227Z,-2.93
2024-03-02T02:19:48.131Z,-2.88
2024-03-02T02:22:14.454Z,-2.82
2024-03-02T02:24:41.886Z,-2.76
2024-03-02T02:27:08.551Z,-2.70
2024-03-02T02:29:35.158Z,-2.64
2024-03-02T02:32:01.429Z,-2.58
2024-03-02T02:34:27.816Z,-2.56
2024-03-02T02:36:54.172Z,-2.57
2024-03-02T02:39:21.000Z,-2.58
2024-03-02T02:41:47.428Z,-2.61
2024-03-02T02:44:13.948Z,-2.66
2024-03-02T02:46:40.613Z,-2.73
2024-03-02T02:49:07.074Z,-2.78
2024-03-02T02:51:33.465Z,-2.84
2024-03-02T02:53:59.905Z,-2.90
2024-03-02T02:56:26.252Z,-2.97
2024-03-02T02:58:52.459Z,-3.03
2024-03-02T03:01:18.894Z,-3.10
2024-03-02T03:03:46.036Z,-3.17
2024-03-02T03:06:12.367Z,-3.23
2024-03-02T03:08:38.650Z,-3.30
2024-03-02T03:11:05.290Z,-3.31
2024-03-02T03:13:32.493Z,-3.31
2024-03-02T03:16:01.623Z,-3.30
2024-03-02T03:18:28.269Z,-3.28
2024-03-02T03:20:54.831Z,-3.26
2024-03-02T03:23:21.305Z,-3.21
2024-03-02T03:25:47.621Z,-3.17
2024-03-02T03:28:13.795Z,-3.12
2024-03-02T03:30:40.267Z,-3.09
2024-03-02T03:33:06.747Z,-3.06
2024-03-02T03:35:33.168Z,-3.05
2024-03-02T03:37:59.650Z,-3.05
2024-03-02T03:40:26.410Z,-3.07
2024-03-02T03:42:52.808Z,-3.11
2024-03-02T03:45:19.208Z,-3.16
2024-03-02T03:47:45.477Z,-3.22
2024-03-02T03:50:12.843Z,-3.28
2024-03-02T03:52:39.098Z,-3.35
2024-03-02T03:55:08.305Z,-3.41
2024-03-02T03:57:34.670Z,-3.49
2024-03-02T04:00:01.020Z,-3.53
2024-03-02T04:02:27.302Z,-3.57
2024-03-02T04:04:53.751Z,-3.59
2024-03-02T04:07:20.055Z,-3.56
2024-03-02T04:09:46.413Z,-3.54
2024-03-02T04:12:13.461Z,-3.52
2024-03-02T04:14:39.717Z,-3.48
2024-03-02T04:17:08.831Z,-3.43
2024-03-02T04:19:35.514Z,-3.38
2024-03-02T04:22:09.119Z,-3.29
2024-03-02T04:24:41.876Z,-3.18
2024-03-02T04:27:09.070Z,-3.08
2024-03-02T04:29:35.229Z,-2.99
2024-03-02T04:32:01.460Z,-2.94
2024-03-02T04:34:27.773Z,-2.91
2024-03-02T04:36:54.290Z,-2.91
2024-03-02T04:39:20.661Z,-2.94
2024-03-02T04:41:47.065Z,-2.98
2024-03-02T04:44:13.496Z,-3.01
2024-03-02T04:46:39.897Z,-3.04
2024-03-02T04:49:06.289Z,-3.09
2024-03-02T04:51:32.614Z,-3.13
2024-03-02T04:53:59.134Z,-3.19
2024-03-02T04:56:28.192Z,-3.24
2024-03-02T04:58:54.526Z,-3.26
2024-03-02T05:01:21.069Z,-3.23
2024-03-02T05:03:47.471Z,-3.18
2024-03-02T05:06:13.885Z,-3.11
2024-03-02T05:08:40.133Z,-3.04
2024-03-02T05:11:25.102Z,-2.94
2024-03-02T05:13:51.609Z,-2.80
2024-03-02T05:16:20.937Z,-2.67
2024-03-02T05:18:47.397Z,-2.54
2024-03-02T05:21:13.728Z,-2.44
2024-03-02T05:23:40.042Z,-2.32
2024-03-02T05:26:06.933Z,-2.22
2024-03-02T05:28:33.526Z,-2.14
2024-03-02T05:30:59.806Z,-2.07
2024-03-02T05:33:26.149Z,-2.02
2024-03-02T05:35:52.810Z,-1.97
2024-03-02T05:38:19.170Z,-1.92
2024-03-02T05:40:45.442Z,-1.89
2024-03-02T05:43:12.181Z,-1.86
2024-03-02T05:45:39.898Z,-1.82
2024-03-02T05:48:09.741Z,-1.77
2024-03-02T05:50:36.256Z,-1.67
2024-03-02T05:53:02.498Z,-1.57
2024-03-02T05:55:29.027Z,-1.45
2024-03-02T05:58:15.616Z,-1.33
2024-03-02T06:00:42.067Z,-1.17
2024-03-02T06:03:09.831Z,-1.02
2024-03-02T06:05:37.092Z,-0.86
2024-03-02T06:08:03.585Z,-0.73
2024-03-02T06:10:30.027Z,-0.62
2024-03-02T06:12:56.481Z,-0.52
2024-03-02T06:15:23.253Z,-0.44
2024-03-02T06:17:49.695Z,-0.35
2024-03-02T06:20:16.290Z,-0.26
2024-03-02T06:22:42.756Z,-0.17
2024-03-02T06:25:09.339Z,-0.04
2024-03-02T06:27:35.997Z,0.09
2024-03-02T06:30:04.421Z,0.22
2024-03-02T06:32:31.500Z,0.36
2024-03-02T06:34:57.853Z,0.51
2024-03-02T06:37:25.336Z,0.66
2024-03-02T06:39:51.590Z,0.78
2024-03-02T06:42:17.990Z,0.93
2024-03-02T06:44:44.537Z,1.10
2024-03-02T06:47:10.835Z,1.28
2024-03-02T06:49:37.270Z,1.47
2024-03-02T06:52:03.953Z,1.69
2024-03-02T06:54:30.526Z,1.93
2024-03-02T06:56:56.956Z,2.16
2024-03-02T06:59:25.007Z,2.36
2024-03-02T07:01:51.719Z,2.48
2024-03-02T07:04:18.183Z,2.56
2024-03-02T07:06:44.642Z,2.68
2024-03-02T07:09:11.401Z,2.85
2024-03-02T07:11:37.719Z,3.03
2024-03-02T07:14:04.135Z,3.20
2024-03-02T07:16:33.719Z,3.41
2024-03-02T07:19:01.700Z,3.63
2024-03-02T07:21:28.493Z,3.79
2024-03-02T07:23:54.806Z,3.91
2024-03-02T07:28:50.678Z,4.10
2024-03-02T07:31:17.168Z,4.17
2024-03-02T07:33:49.654Z,4.22
2024-03-02T07:36:16.149Z,4.30
2024-03-02T07:38:43.239Z,4.36
2024-03-02T07:41:09.695Z,4.48
2024-03-02T07:43:36.078Z,4.61
2024-03-02T07:46:03.628Z,4.72
2024-03-02T07:48:31.240Z,4.81
2024-03-02T07:50:57.725Z,4.84
2024-03-02T07:53:24.063Z,4.87
2024-03-02T07:55:50.808Z,4.94
2024-03-02T07:58:18.634Z,5.03
2024-03-02T08:00:45.297Z,5.12
2024-03-02T08:03:11.772Z,5.19
2024-03-02T08:05:38.915Z,5.28
2024-03-02T08:08:05.750Z,5.36
2024-03-02T08:10:32.193Z,5.44
2024-03-02T08:12:58.596Z,5.54
2024-03-02T08:15:26.920Z,5.64
2024-03-02T08:17:54.473Z,5.77
2024-03-02T08:20:20.864Z,5.90
2024-03-02T08:22:47.744Z,5.98
2024-03-02T08:25:14.254Z,6.04
2024-03-02T08:27:41.246Z,6.16
2024-03-02T08:30:08.828Z,6.33
2024-03-02T08:32:35.823Z,6.54
2024-03-02T08:35:02.316Z,6.72
2024-03-02T08:37:28.914Z,6.87
2024-03-02T08:39:58.158Z,7.01
2024-03-02T08:42:24.869Z,7.18
2024-03-02T08:44:51.257Z,7.34
2024-03-02T08:47:17.764Z,7.43
2024-03-02T08:49:44.429Z,7.50
2024-03-02T08:52:10.893Z,7.65
2024-03-02T08:54:38.178Z,7.83
2024-03-02T08:57:04.695Z,7.99
2024-03-02T08:59:31.846Z,8.10
2024-03-02T09:01:58.214Z,8.17
2024-03-02T09:04:27.149Z,8.13
2024-03-02T09:06:54.454Z,8.08
2024-03-02T09:09:21.072Z,8.03
2024-03-02T09:11:47.650Z,8.07
2024-03-02T09:14:15.345Z,8.11
2024-03-02T09:16:42.572Z,8.15
2024-03-02T09:19:10.048Z,8.19
2024-03-02T09:21:36.479Z,8.26
2024-03-02T09:24:04.126Z,8.34
2024-03-02T09:26:30.737Z,8.34
2024-03-02T09:28:57.045Z,8.35
2024-03-02T09:31:23.419Z,8.38
2024-03-02T09:33:49.943Z,8.29
2024-03-02T09:36:22.746Z,8.25
2024-03-02T09:38:49.154Z,8.19
2024-03-02T09:41:15.725Z,8.17
2024-03-02T09:43:41.947Z,8.15
2024-03-02T09:46:09.204Z,8.06
2024-03-02T09:48:35.763Z,7.99
2024-03-02T09:51:03.823Z,7.95
2024-03-02T09:53:31.449Z,7.96
2024-03-02T09:55:59.012Z,7.96
2024-03-02T09:58:25.419Z,7.94
2024-03-02T10:00:51.943Z,7.98
2024-03-02T10:03:18.943Z,8.09
2024-03-02T10:05:45.379Z,8.21
2024-03-02T10:08:11.708Z,8.24
2024-03-02T10:10:40.441Z,8.25
2024-03-02T10:13:07.307Z,8.28
2024-03-02T10:15:34.557Z,8.29
2024-03-02T10:18:01.076Z,8.27
2024-03-02T10:20:29.494Z,8.30
2024-03-02T10:22:56.193Z,8.36
2024-03-02T10:25:37.357Z,8.45
2024-03-02T10:28:10.077Z,8.57
2024-03-02T10:30:37.090Z,8.69
2024-03-02T10:33:03.657Z,8.78
2024-03-02T10:35:32.647Z,8.80
2024-03-02T10:37:59.146Z,8.77
2024-03-02T10:40:25.637Z,8.74
2024-03-02T10:42:52.464Z,8.75
2024-03-02T10:45:20.000Z,8.79
2024-03-02T10:47:47.358Z,8.84
2024-03-02T10:50:13.891Z,8.93
2024-03-02T10:52:40.660Z,8.96
2024-03-02T10:55:07.522Z,9.04
2024-03-02T10:57:37.496Z,9.14
2024-03-02T11:00:04.241Z,9.18
2024-03-02T11:02:31.117Z,9.20
2024-03-02T11:04:57.590Z,9.25
2024-03-02T11:07:24.289Z,9.30
2024-03-02T11:09:54.945Z,9.29
2024-03-02T11:12:32.355Z,9.27
2024-03-02T11:15:00.230Z,9.25
2024-03-02T11:17:27.255Z,9.24
2024-03-02T11:19:53.953Z,9.26
2024-03-02T11:22:20.370Z,9.28
2024-03-02T11:24:49.996Z,9.31
2024-03-02T11:27:20.716Z,9.32
2024-03-02T11:29:47.448Z,9.31
2024-03-02T11:32:26.418Z,9.25
2024-03-02T11:34:52.961Z,9.22
2024-03-02T11:37:23.032Z,9.26
2024-03-02T11:39:50.171Z,9.34
2024-03-02T11:42:16.859Z,9.35
2024-03-02T11:44:44.133Z,9.35
2024-03-02T11:47:11.287Z,9.38
2024-03-02T11:49:39.256Z,9.39
2024-03-02T11:52:07.074Z,9.31
2024-03-02T11:54:36.382Z,9.20
2024-03-02T11:57:03.255Z,9.02
2024-03-02T11:59:30.344Z,8.87
2024-03-02T12:01:56.922Z,8.74
2024-03-02T12:04:23.712Z,8.62
2024-03-02T12:07:00.658Z,8.53
2024-03-02T12:09:28.143Z,8.44
2024-03-02T12:12:07.591Z,8.35
2024-03-02T12:14:34.633Z,8.28
2024-03-02T12:17:03.595Z,8.18
2024-03-02T12:19:30.401Z,8.10
2024-03-02T12:21:57.084Z,8.03
2024-03-02T12:24:24.028Z,8.01
2024-03-02T12:26:53.637Z,8.00
2024-03-02T12:29:20.821Z,8.02
2024-03-02T12:31:53.644Z,8.01
2024-03-02T12:34:20.265Z,8.00
2024-03-02T12:36:49.806Z,8.04
2024-03-02T12:39:19.622Z,8.14
2024-03-02T12:41:52.499Z,8.24
2024-03-02T12:44:19.095Z,8.31
2024-03-02T12:46:46.093Z,8.38
2024-03-02T12:49:13.262Z,8.51
2024-03-02T12:51:40.978Z,8.64
2024-03-02T12:54:08.072Z,8.70
2024-03-02T12:56:34.487Z,8.74
2024-03-02T12:59:00.969Z,8.80
2024-03-02T13:01:27.579Z,8.87
2024-03-02T13:03:55.792Z,8.88
2024-03-02T13:06:22.626Z,8.89
2024-03-02T13:08:49.114Z,8.91
2024-03-02T13:11:15.899Z,8.90
2024-03-02T13:13:42.465Z,8.86
2024-03-02T13:16:10.881Z,8.86
2024-03-02T13:18:38.950Z,8.86
2024-03-02T13:21:05.301Z,8.83
2024-03-02T13:23:31.735Z,8.79
2024-03-02T13:26:00.856Z,8.76
2024-03-02T13:28:27.282Z,8.68
2024-03-02T13:30:53.718Z,8.63
2024-03-02T13:33:22.951Z,8.58
2024-03-02T13:35:52.468Z,8.47
2024-03-02T13:38:19.440Z,8.34
2024-03-02T13:40:46.064Z,8.23
2024-03-02T13:43:12.635Z,8.14
2024-03-02T13:45:39.447Z,8.04
2024-03-02T13:48:06.279Z,7.91
2024-03-02T13:50:33.123Z,7.80
2024-03-02T13:52:59.587Z,7.70
2024-03-02T13:55:26.054Z,7.63
2024-03-02T13:57:52.638Z,7.61
2024-03-02T14:00:19.320Z,7.58
2024-03-02T14:02:45.989Z,7.57
2024-03-02T14:05:12.529Z,7.57
2024-03-02T14:07:39.135Z,7.59
2024-03-02T14:10:06.236Z,7.63
2024-03-02T14:12:32.974Z,7.67
2024-03-02T14:14:59.318Z,7.69
2024-03-02T14:17:28.067Z,7.74
2024-03-02T14:19:54.785Z,7.79
2024-03-02T14:22:21.468Z,7.82
2024-03-02T14:24:49.749Z,7.77
2024-03-02T14:27:25.636Z,7.68
2024-03-02T14:29:59.690Z,7.62
2024-03-02T14:32:26.347Z,7.51
2024-03-02T14:34:52.697Z,7.38
2024-03-02T14:37:22.089Z,7.24
2024-03-02T14:39:48.441Z,7.08
2024-03-02T14:42:15.233Z,6.91
2024-03-02T14:44:41.638Z,6.76
2024-03-02T14:47:08.322Z,6.62
2024-03-02T14:49:37.400Z,6.47
2024-03-02T14:52:04.836Z,6.32
2024-03-02T14:54:31.519Z,6.16
2024-03-02T14:56:57.915Z,6.02
2024-03-02T14:59:24.346Z,5.89
2024-03-02T15:01:50.769Z,5.77
2024-03-02T15:04:20.142Z,5.65
2024-03-02T15:06:48.401Z,5.54
2024-03-02T15:09:18.773Z,5.45
2024-03-02T15:11:45.393Z,5.35
2024-03-02T15:14:11.937Z,5.27
2024-03-02T15:16:43.117Z,5.20
2024-03-02T15:19:09.772Z,5.13
2024-03-02T15:21:36.361Z,5.07
2024-03-02T15:24:02.897Z,5.00
2024-03-02T15:26:29.546Z,4.96
2024-03-02T15:28:58.061Z,4.91
2024-03-02T15:31:24.624Z,4.85
2024-03-02T15:33:51.468Z,4.80
2024-03-02T15:36:18.406Z,4.74
2024-03-02T15:38:44.967Z,4.66
2024-03-02T15:41:11.454Z,4.58
2024-03-02T15:43:39.548Z,4.48
2024-03-02T15:46:06.176Z,4.38
2024-03-02T15:48:33.283Z,4.29
2024-03-02T15:51:02.144Z,4.19
2024-03-02T15:53:30.245Z,4.09
2024-03-02T15:55:56.644Z,4.00
2024-03-02T15:58:23.232Z,3.91
2024-03-02T16:00:49.874Z,3.81
2024-03-02T16:03:16.524Z,3.73
2024-03-02T16:05:42.927Z,3.66
2024-03-02T16:08:09.331Z,3.62
2024-03-02T16:10:35.855Z,3.60
2024-03-02T16:13:03.888Z,3.59
2024-03-02T16:15:31.820Z,3.60
2024-03-02T16:17:59.606Z,3.61
2024-03-02T16:20:26.064Z,3.60
2024-03-02T16:22:52.587Z,3.58
2024-03-02T16:25:19.005Z,3.54
2024-03-02T16:27:45.555Z,3.52
2024-03-02T16:30:12.162Z,3.50
2024-03-02T16:32:39.485Z,3.49
2024-03-02T16:35:06.198Z,3.46
2024-03-02T16:37:33.351Z,3.44
2024-03-02T16:39:59.851Z,3.42
2024-03-02T16:42:26.507Z,3.41
2024-03-02T16:44:55.313Z,3.43
2024-03-02T16:47:23.288Z,3.43
2024-03-02T16:49:49.992Z,3.45
2024-03-02T16:52:17.401Z,3.45
2024-03-02T16:54:49.965Z,3.45
2024-03-02T16:57:17.553Z,3.43
2024-03-02T16:59:44.245Z,3.43
2024-03-02T17:02:10.929Z,3.43
2024-03-02T17:04:37.452Z,3.44
2024-03-02T17:07:04.150Z,3.45
2024-03-02T17:09:30.644Z,3.47
2024-03-02T17:11:57.094Z,3.46
2024-03-02T17:14:24.818Z,3.45
2024-03-02T17:16:52.637Z,3.45
2024-03-02T17:19:19.224Z,3.43
2024-03-02T17:21:46.117Z,3.41
2024-03-02T17:24:12.631Z,3.41
2024-03-02T17:26:40.401Z,3.40
2024-03-02T17:29:06.926Z,3.42
2024-03-02T17:31:33.592Z,3.49
2024-03-02T17:34:00.631Z,3.57
2024-03-02T17:36:27.181Z,3.63
2024-03-02T17:38:53.617Z,3.70
2024-03-02T17:41:19.978Z,3.77
2024-03-02T17:43:46.835Z,3.83
2024-03-02T17:46:13.546Z,3.87
2024-03-02T17:48:41.341Z,3.90
2024-03-02T17:51:08.634Z,3.90
2024-03-02T17:53:35.178Z,3.88
2024-03-02T17:56:01.639Z,3.84
2024-03-02T17:58:28.414Z,3.80
2024-03-02T18:00:56.853Z,3.74
2024-03-02T18:03:24.464Z,3.67
2024-03-02T18:05:50.968Z,3.60
2024-03-02T18:08:18.237Z,3.51
2024-03-02T18:10:44.787Z,3.42
2024-03-02T18:13:11.402Z,3.33
2024-03-02T18:15:38.474Z,3.24
2024-03-02T18:18:05.751Z,3.16
2024-03-02T18:20:34.168Z,3.08
2024-03-02T18:23:01.104Z,3.02
2024-03-02T18:25:28.190Z,2.96
2024-03-02T18:27:54.818Z,2.94
2024-03-02T18:30:21.546Z,2.94
2024-03-02T18:32:48.061Z,3.00
2024-03-02T18:35:14.504Z,3.09
2024-03-02T18:37:43.195Z,3.22
2024-03-02T18:40:11.517Z,3.33
2024-03-02T18:42:38.435Z,3.42
2024-03-02T18:45:05.565Z,3.46
2024-03-02T18:47:35.296Z,3.44
2024-03-02T18:50:05.264Z,3.40
2024-03-02T18:52:34.008Z,3.34
2024-03-02T18:55:03.160Z,3.27
2024-03-02T18:57:30.394Z,3.22
2024-03-02T18:59:57.156Z,3.18
2024-03-02T19:02:24.623Z,3.15
2024-03-02T19:04:51.631Z,3.12
2024-03-02T19:07:18.450Z,3.09
2024-03-02T19:09:44.934Z,3.05
2024-03-02T19:12:11.528Z,2.98
2024-03-02T19:14:38.067Z,2.92
2024-03-02T19:17:04.928Z,2.84
2024-03-02T19:19:31.656Z,2.76
2024-03-02T19:22:02.611Z,2.67
2024-03-02T19:24:37.983Z,2.56
2024-03-02T19:27:07.206Z,2.45
2024-03-02T19:29:33.640Z,2.35
2024-03-02T19:32:05.147Z,2.26
2024-03-02T19:34:34.779Z,2.17
2024-03-02T19:37:01.461Z,2.11
2024-03-02T19:39:30.059Z,2.08
2024-03-02T19:41:56.566Z,2.07
2024-03-02T19:44:24.015Z,2.06
2024-03-02T19:46:50.721Z,2.06
2024-03-02T19:49:17.344Z,2.07
2024-03-02T19:51:43.922Z,2.09
2024-03-02T19:54:10.355Z,2.08
2024-03-02T19:56:37.354Z,2.04
2024-03-02T19:59:04.295Z,2.01
2024-03-02T20:01:31.062Z,1.97
2024-03-02T20:03:58.172Z,1.94
2024-03-02T20:06:24.924Z,1.91
2024-03-02T20:08:51.306Z,1.86
2024-03-02T20:11:17.699Z,1.82
2024-03-02T20:13:44.112Z,1.79
2024-03-02T20:16:12.033Z,1.77
2024-03-02T20:18:39.070Z,1.76
2024-03-02T20:21:05.553Z,1.78
2024-03-02T20:23:31.970Z,1.80
2024-03-02T20:25:58.461Z,1.80
2024-03-02T20:28:25.211Z,1.83
2024-03-02T20:30:51.552Z,1.85
2024-03-02T20:33:17.942Z,1.88
2024-03-02T20:35:44.405Z,1.86
2024-03-02T20:38:10.742Z,1.84
2024-03-02T20:40:37.177Z,1.81
2024-03-02T20:43:03.841Z,1.79
2024-03-02T20:45:30.759Z,1.76
2024-03-02T20:47:57.179Z,1.72
2024-03-02T20:50:23.692Z,1.67
2024-03-02T20:52:50.033Z,1.61
2024-03-02T20:55:16.502Z,1.59
2024-03-02T20:57:42.953Z,1.56
2024-03-02T21:00:09.507Z,1.54
2024-03-02T21:02:36.283Z,1.51
2024-03-02T21:05:03.434Z,1.49
2024-03-02T21:07:30.193Z,1.45
2024-03-02T21:09:57.552Z,1.40
2024-03-02T21:12:24.053Z,1.33
2024-03-02T21:14:50.368Z,1.24
2024-03-02T21:17:18.014Z,1.15
2024-03-02T21:19:44.610Z,1.07
2024-03-02T21:22:10.973Z,0.98
2024-03-02T21:24:37.971Z,0.89
2024-03-02T21:27:06.050Z,0.80
2024-03-02T21:29:32.534Z,0.70
2024-03-02T21:31:59.012Z,0.61
2024-03-02T21:34:25.654Z,0.51
2024-03-02T21:36:52.352Z,0.42
2024-03-02T21:39:21.287Z,0.34
2024-03-02T21:41:49.396Z,0.25
2024-03-02T21:44:15.852Z,0.17
2024-03-02T21:46:42.357Z,0.12
2024-03-02T21:49:08.769Z,0.07
2024-03-02T21:51:35.205Z,0.05
2024-03-02T21:54:01.683Z,0.03
2024-03-02T21:56:28.369Z,-0.02
2024-03-02T21:58:54.749Z,-0.08
2024-03-02T22:01:21.052Z,-0.16
2024-03-02T22:03:47.958Z,-0.25
2024-03-02T22:06:14.618Z,-0.35
2024-03-02T22:08:41.009Z,-0.47
2024-03-02T22:11:07.356Z,-0.59
2024-03-02T22:13:33.672Z,-0.72
2024-03-02T22:16:00.360Z,-0.83
2024-03-02T22:18:26.801Z,-0.93
2024-03-02T22:20:53.077Z,-1.06
2024-03-02T22:23:19.453Z,-1.17
2024-03-02T22:25:45.661Z,-1.28
2024-03-02T22:28:12.157Z,-1.40
2024-03-02T22:30:38.599Z,-1.50
2024-03-02T22:33:05.109Z,-1.60
2024-03-02T22:35:31.643Z,-1.70
2024-03-02T22:37:58.012Z,-1.80
2024-03-02T22:40:25.345Z,-1.88
2024-03-02T22:42:51.889Z,-1.94
2024-03-02T22:45:18.811Z,-1.97
2024-03-02T22:47:45.075Z,-2.00
2024-03-02T22:50:11.442Z,-2.02
2024-03-02T22:52:37.837Z,-2.02
2024-03-02T22:55:04.574Z,-2.00
2024-03-02T22:57:31.247Z,-1.96
2024-03-02T22:59:57.752Z,-1.93
2024-03-02T23:02:26.773Z,-1.87
2024-03-02T23:04:53.190Z,-1.86
2024-03-02T23:07:19.994Z,-1.86
2024-03-02T23:09:46.539Z,-1.89
2024-03-02T23:12:13.156Z,-1.95
2024-03-02T23:14:39.403Z,-2.02
2024-03-02T23:17:06.844Z,-2.11
2024-03-02T23:19:33.405Z,-2.20
2024-03-02T23:22:00.066Z,-2.30
2024-03-02T23:24:26.462Z,-2.41
2024-03-02T23:26:52.838Z,-2.50
2024-03-02T23:29:19.539Z,-2.59
2024-03-02T23:31:45.963Z,-2.68
2024-03-02T23:34:13.048Z,-2.77
2024-03-02T23:36:39.959Z,-2.86
2024-03-02T23:39:07.071Z,-2.92
2024-03-02T23:41:34.168Z,-2.95
2024-03-02T23:44:01.908Z,-2.98
2024-03-02T23:46:28.966Z,-3.00
2024-03-02T23:48:55.285Z,-2.99
2024-03-02T23:51:21.691Z,-2.95
2024-03-02T23:53:47.937Z,-2.91
2024-03-02T23:56:14.342Z,-2.87
2024-03-02T23:58:40.671Z,-2.82
